Time;durP1;ratioP1;P1;durP2;ratioP2;P2;SDS_P1;SDS_P2;PMS_P1;PMS_P2;Temp;Humidity;BMP_temperature;BMP_pressure;BME280_temperature;BME280_humidity;BME280_pressure;Samples;Min_cycle;Max_cycle;Signal;HPM_P1;HPM_P2
2023/07/27 00:02:08;;;;;;;7.55;5.22;;;;;;;;;;5079430;28;20043;-70
2023/07/27 00:04:34;;;;;;;12.95;6.90;;;;;;;;;;5076893;28;20111;-70
2023/07/27 00:07:00;;;;;;;10.20;5.60;;;;;;;;;;5075448;28;20040;-70
2023/07/27 00:09:26;;;;;;;9.45;5.45;;;;;;;;;;5073276;28;20071;-70
2023/07/27 00:11:52;;;;;;;10.43;6.32;;;;;;;;;;5078716;28;20473;-70
2023/07/27 00:14:18;;;;;;;10.88;5.35;;;;;;;;;;5075253;28;20032;-70
2023/07/27 00:16:45;;;;;;;9.95;6.07;;;;;;;;;;5070327;28;20501;-70
2023/07/27 00:19:11;;;;;;;7.03;4.93;;;;;;;;;;5082345;28;20527;-70
2023/07/27 00:21:37;;;;;;;9.13;5.55;;;;;;;;;;5071608;28;20056;-71
2023/07/27 00:24:03;;;;;;;11.48;5.95;;;;;;;;;;5079680;28;20654;-70
2023/07/27 00:26:29;;;;;;;8.60;5.53;;;;;;;;;;5077445;28;20057;-70
2023/07/27 00:28:55;;;;;;;79.97;53.22;;;;;;;;;;5075261;28;20036;-74
2023/07/27 00:31:21;;;;;;;8.60;6.15;;;;;;;;;;5078389;28;20098;-73
2023/07/27 00:33:47;;;;;;;17.60;5.95;;;;;;;;;;5073968;28;20449;-72
2023/07/27 00:36:13;;;;;;;9.20;5.53;;;;;;;;;;5071647;28;20039;-70
2023/07/27 00:38:39;;;;;;;11.48;5.70;;;;;;;;;;5080246;28;20025;-70
2023/07/27 00:41:07;;;;;;;7.50;5.38;;;;;;;;;;5074052;28;20035;-69
2023/07/27 00:43:33;;;;;;;8.32;5.28;;;;;;;;;;5074893;28;20355;-69
2023/07/27 00:45:59;;;;;;;8.95;5.68;;;;;;;;;;5073173;28;20478;-69
2023/07/27 00:48:25;;;;;;;7.93;5.78;;;;;;;;;;5081289;28;20033;-70
2023/07/27 00:50:52;;;;;;;7.72;5.28;;;;;;;;;;5080753;28;20042;-70
2023/07/27 00:53:18;;;;;;;7.05;5.45;;;;;;;;;;5079863;28;20034;-70
2023/07/27 00:55:45;;;;;;;9.45;5.50;;;;;;;;;;5078676;28;20036;-70
2023/07/27 00:58:12;;;;;;;9.65;5.70;;;;;;;;;;5078656;28;20432;-70
2023/07/27 01:05:45;;;;;;;8.30;5.25;;;;;;;;;;5006316;28;20061;-70
2023/07/27 01:08:11;;;;;;;8.13;5.15;;;;;;;;;;5028021;28;20038;-71
2023/07/27 01:11:00;;;;;;;9.88;5.38;;;;;;;;;;5025507;28;20033;-70
2023/07/27 01:13:43;;;;;;;9.52;5.72;;;;;;;;;;5006351;28;20041;-70
2023/07/27 01:16:12;;;;;;;9.02;5.93;;;;;;;;;;5009527;28;20441;-70
2023/07/27 01:18:50;;;;;;;8.35;5.47;;;;;;;;;;5013104;28;20021;-70
2023/07/27 01:21:18;;;;;;;9.05;5.22;;;;;;;;;;5010024;28;20520;-70
2023/07/27 01:23:48;;;;;;;6.75;5.03;;;;;;;;;;5026326;28;20028;-70
2023/07/27 01:26:33;;;;;;;10.38;5.60;;;;;;;;;;5027629;28;20029;-70
2023/07/27 01:29:09;;;;;;;10.68;6.13;;;;;;;;;;5027713;28;20088;-70
2023/07/27 01:31:41;;;;;;;9.30;4.78;;;;;;;;;;5012100;28;20355;-70
2023/07/27 01:34:09;;;;;;;8.63;4.97;;;;;;;;;;5025886;28;20054;-70
2023/07/27 01:36:38;;;;;;;8.55;5.05;;;;;;;;;;5026428;28;20029;-70
2023/07/27 01:39:07;;;;;;;9.88;4.78;;;;;;;;;;5026932;28;20493;-70
2023/07/27 01:41:33;;;;;;;6.85;5.50;;;;;;;;;;5026395;28;20049;-70
2023/07/27 01:44:01;;;;;;;7.10;5.20;;;;;;;;;;5028635;28;20529;-70
2023/07/27 01:46:29;;;;;;;8.15;4.85;;;;;;;;;;5010720;28;20030;-70
2023/07/27 01:48:56;;;;;;;7.50;5.53;;;;;;;;;;5008396;28;20077;-70
2023/07/27 01:51:22;;;;;;;7.28;4.80;;;;;;;;;;5010029;28;20044;-71
2023/07/27 01:53:49;;;;;;;8.50;5.18;;;;;;;;;;5027259;28;20038;-71
2023/07/27 01:56:15;;;;;;;8.25;5.22;;;;;;;;;;5028170;28;20040;-70
2023/07/27 01:58:41;;;;;;;11.65;5.13;;;;;;;;;;5025651;28;20045;-70
2023/07/27 02:01:08;;;;;;;7.75;5.50;;;;;;;;;;5010371;28;20128;-71
2023/07/27 02:03:34;;;;;;;8.40;4.95;;;;;;;;;;5028729;28;20026;-70
2023/07/27 02:06:00;;;;;;;9.65;5.45;;;;;;;;;;5011487;28;20049;-71
2023/07/27 02:08:26;;;;;;;8.05;4.72;;;;;;;;;;5025551;28;20664;-71
2023/07/27 02:10:56;;;;;;;8.82;4.88;;;;;;;;;;5012103;28;20099;-71
2023/07/27 02:13:24;;;;;;;6.80;5.18;;;;;;;;;;5029325;28;20030;-70
2023/07/27 02:16:03;;;;;;;8.10;4.70;;;;;;;;;;5026457;28;20037;-70
2023/07/27 02:18:29;;;;;;;8.02;5.03;;;;;;;;;;5022534;28;20383;-70
2023/07/27 02:20:56;;;;;;;7.93;4.90;;;;;;;;;;5029169;28;20045;-70
2023/07/27 02:23:23;;;;;;;7.57;4.93;;;;;;;;;;5027280;28;20033;-70
2023/07/27 02:25:49;;;;;;;8.25;4.82;;;;;;;;;;5022579;28;20037;-70
2023/07/27 02:28:15;;;;;;;6.97;4.43;;;;;;;;;;5025786;28;20857;-70
2023/07/27 02:30:41;;;;;;;10.73;4.50;;;;;;;;;;5026142;28;20042;-70
2023/07/27 02:33:07;;;;;;;11.07;4.85;;;;;;;;;;5025766;28;20048;-70
2023/07/27 02:35:33;;;;;;;7.00;4.85;;;;;;;;;;5023823;28;20029;-70
2023/07/27 02:37:59;;;;;;;8.70;4.80;;;;;;;;;;5023992;28;20038;-70
2023/07/27 02:40:25;;;;;;;8.02;5.05;;;;;;;;;;4994868;28;20112;-70
2023/07/27 02:42:51;;;;;;;10.57;5.70;;;;;;;;;;5011015;28;20056;-70
2023/07/27 02:45:17;;;;;;;6.97;4.60;;;;;;;;;;5024298;28;20160;-71
2023/07/27 02:47:43;;;;;;;8.73;5.45;;;;;;;;;;5027521;28;20029;-70
2023/07/27 02:50:09;;;;;;;7.28;5.18;;;;;;;;;;4990034;28;20037;-70
2023/07/27 02:52:35;;;;;;;8.55;4.85;;;;;;;;;;5025208;28;20386;-70
2023/07/27 02:55:01;;;;;;;8.57;5.30;;;;;;;;;;5024373;28;20034;-70
2023/07/27 02:57:27;;;;;;;8.50;4.72;;;;;;;;;;5028361;28;20077;-70
2023/07/27 02:59:53;;;;;;;7.25;4.53;;;;;;;;;;5025570;28;20343;-70
2023/07/27 03:02:19;;;;;;;7.70;5.32;;;;;;;;;;5024160;28;20441;-70
2023/07/27 03:04:45;;;;;;;8.00;5.40;;;;;;;;;;5010002;28;20056;-70
2023/07/27 03:07:12;;;;;;;7.43;4.97;;;;;;;;;;5006665;28;20041;-70
2023/07/27 03:09:38;;;;;;;9.02;5.72;;;;;;;;;;5020748;28;20553;-70
2023/07/27 03:12:04;;;;;;;10.88;5.72;;;;;;;;;;5027221;28;20091;-70
2023/07/27 03:14:30;;;;;;;9.18;5.53;;;;;;;;;;5027168;28;20120;-70
2023/07/27 03:16:56;;;;;;;7.72;5.20;;;;;;;;;;4994720;28;20565;-70
2023/07/27 03:19:22;;;;;;;9.52;5.93;;;;;;;;;;5025408;28;20096;-70
2023/07/27 03:21:48;;;;;;;9.07;5.90;;;;;;;;;;5021992;28;20116;-70
2023/07/27 03:24:16;;;;;;;9.25;6.30;;;;;;;;;;5017924;28;20040;-71
2023/07/27 03:26:43;;;;;;;9.27;5.40;;;;;;;;;;5023922;28;20021;-70
2023/07/27 03:29:09;;;;;;;7.95;5.90;;;;;;;;;;5028813;28;20025;-71
2023/07/27 03:31:35;;;;;;;9.15;5.32;;;;;;;;;;5021494;28;20026;-70
2023/07/27 03:34:01;;;;;;;10.07;5.68;;;;;;;;;;5029562;28;21843;-70
2023/07/27 03:36:27;;;;;;;6.75;5.43;;;;;;;;;;5024751;28;20116;-71
2023/07/27 03:38:53;;;;;;;7.80;6.00;;;;;;;;;;5028473;28;20025;-71
2023/07/27 03:41:19;;;;;;;8.02;5.93;;;;;;;;;;5023573;28;20034;-71
2023/07/27 03:43:45;;;;;;;8.88;5.70;;;;;;;;;;5027161;28;20117;-72
2023/07/27 03:46:11;;;;;;;6.88;4.97;;;;;;;;;;5024554;28;20025;-71
2023/07/27 03:48:37;;;;;;;9.40;5.68;;;;;;;;;;5028041;28;20033;-72
2023/07/27 03:51:04;;;;;;;8.75;5.93;;;;;;;;;;5023420;28;20079;-72
2023/07/27 03:53:30;;;;;;;9.75;6.55;;;;;;;;;;5026859;28;20551;-71
2023/07/27 03:55:56;;;;;;;10.95;5.85;;;;;;;;;;5021710;28;20040;-71
2023/07/27 03:58:23;;;;;;;9.77;6.20;;;;;;;;;;5006523;28;20037;-71
2023/07/27 04:00:49;;;;;;;12.25;6.72;;;;;;;;;;5025576;28;20041;-72
2023/07/27 04:03:15;;;;;;;9.63;6.50;;;;;;;;;;5026596;28;20034;-71
2023/07/27 04:05:41;;;;;;;12.35;7.25;;;;;;;;;;5026716;28;20057;-72
2023/07/27 04:08:07;;;;;;;11.38;7.75;;;;;;;;;;5020666;28;20044;-72
2023/07/27 04:10:33;;;;;;;12.65;8.02;;;;;;;;;;5016306;28;20104;-72
2023/07/27 04:12:59;;;;;;;11.15;7.65;;;;;;;;;;5025561;28;20049;-71
2023/07/27 04:15:25;;;;;;;13.80;8.35;;;;;;;;;;5024491;28;20061;-73
2023/07/27 04:17:51;;;;;;;14.05;7.75;;;;;;;;;;5025962;28;20034;-73
2023/07/27 04:20:17;;;;;;;12.85;7.95;;;;;;;;;;5020970;28;20099;-72
2023/07/27 04:22:43;;;;;;;19.67;8.48;;;;;;;;;;5026283;28;20130;-72
2023/07/27 04:25:09;;;;;;;18.92;10.20;;;;;;;;;;5028188;28;20041;-72
2023/07/27 04:27:35;;;;;;;14.75;9.27;;;;;;;;;;5029295;28;20021;-73
2023/07/27 04:30:02;;;;;;;14.18;8.70;;;;;;;;;;5010000;28;20069;-72
2023/07/27 04:32:28;;;;;;;15.18;9.02;;;;;;;;;;5027847;28;20022;-72
2023/07/27 04:34:54;;;;;;;15.23;8.48;;;;;;;;;;5011164;28;20167;-71
2023/07/27 04:37:20;;;;;;;14.70;8.80;;;;;;;;;;5011903;28;20124;-72
2023/07/27 04:39:46;;;;;;;15.25;9.38;;;;;;;;;;5031105;28;20043;-72
2023/07/27 04:42:12;;;;;;;17.73;8.95;;;;;;;;;;5004149;28;20479;-72
2023/07/27 04:44:38;;;;;;;13.82;9.65;;;;;;;;;;5014134;28;20041;-70
2023/07/27 04:47:05;;;;;;;15.20;9.55;;;;;;;;;;5012922;28;20082;-70
2023/07/27 04:49:31;;;;;;;13.73;9.18;;;;;;;;;;5030437;28;20529;-71
2023/07/27 04:51:57;;;;;;;14.00;9.30;;;;;;;;;;5006681;28;20026;-70
2023/07/27 04:54:23;;;;;;;13.38;9.27;;;;;;;;;;5028007;28;20415;-71
2023/07/27 04:56:49;;;;;;;14.98;9.38;;;;;;;;;;5027688;28;20099;-71
2023/07/27 04:59:15;;;;;;;12.85;8.27;;;;;;;;;;5027910;28;20057;-70
2023/07/27 05:01:41;;;;;;;13.75;9.15;;;;;;;;;;5027499;28;20049;-71
2023/07/27 05:04:07;;;;;;;13.52;9.02;;;;;;;;;;5011305;28;20101;-71
2023/07/27 05:06:34;;;;;;;17.80;8.75;;;;;;;;;;5026454;28;20112;-71
2023/07/27 05:09:00;;;;;;;18.92;10.32;;;;;;;;;;5012543;28;20049;-72
2023/07/27 05:11:26;;;;;;;14.50;9.35;;;;;;;;;;5029182;28;20025;-71
2023/07/27 05:13:52;;;;;;;15.82;9.07;;;;;;;;;;5026636;28;20053;-71
2023/07/27 05:16:19;;;;;;;12.77;9.07;;;;;;;;;;4991459;28;20091;-71
2023/07/27 05:18:45;;;;;;;13.55;8.80;;;;;;;;;;5009804;28;20057;-70
2023/07/27 05:21:11;;;;;;;14.20;8.52;;;;;;;;;;5025775;28;20045;-70
2023/07/27 05:23:37;;;;;;;14.07;8.43;;;;;;;;;;5011549;28;20029;-70
2023/07/27 05:26:03;;;;;;;13.35;8.77;;;;;;;;;;5025820;28;20120;-70
2023/07/27 05:28:29;;;;;;;12.90;8.30;;;;;;;;;;5026228;28;20036;-71
2023/07/27 05:30:55;;;;;;;13.45;8.57;;;;;;;;;;5009900;28;20076;-70
2023/07/27 05:33:21;;;;;;;10.15;7.65;;;;;;;;;;5024031;28;20450;-70
2023/07/27 05:35:48;;;;;;;10.32;7.15;;;;;;;;;;5024253;28;20033;-71
2023/07/27 05:38:15;;;;;;;13.40;8.10;;;;;;;;;;5028540;28;20037;-70
2023/07/27 05:40:41;;;;;;;13.48;8.20;;;;;;;;;;5028853;28;20105;-70
2023/07/27 05:43:07;;;;;;;14.60;8.55;;;;;;;;;;5030206;28;20100;-71
2023/07/27 05:45:33;;;;;;;11.20;7.75;;;;;;;;;;5027421;28;20030;-71
2023/07/27 05:47:59;;;;;;;14.05;7.70;;;;;;;;;;5030543;28;20494;-72
2023/07/27 05:50:25;;;;;;;9.63;6.22;;;;;;;;;;5009663;28;20037;-71
2023/07/27 05:52:51;;;;;;;8.23;6.78;;;;;;;;;;5020215;28;20033;-73
2023/07/27 05:55:17;;;;;;;11.63;7.38;;;;;;;;;;5027970;28;20040;-71
2023/07/27 05:57:43;;;;;;;12.50;6.53;;;;;;;;;;5020642;28;20386;-72
2023/07/27 06:00:09;;;;;;;9.95;6.53;;;;;;;;;;5027317;28;20033;-72
2023/07/27 06:02:35;;;;;;;7.85;6.30;;;;;;;;;;5023376;28;20049;-72
2023/07/27 06:05:01;;;;;;;17.67;13.55;;;;;;;;;;5028382;28;20115;-73
2023/07/27 06:07:27;;;;;;;9.43;6.28;;;;;;;;;;5017327;28;20091;-73
2023/07/27 06:09:53;;;;;;;9.43;6.28;;;;;;;;;;5030164;28;20057;-73
2023/07/27 06:12:19;;;;;;;12.90;7.28;;;;;;;;;;5026310;28;20069;-73
2023/07/27 06:14:45;;;;;;;8.95;6.15;;;;;;;;;;5016837;28;20531;-72
2023/07/27 06:17:11;;;;;;;9.95;6.25;;;;;;;;;;5023680;28;20148;-73
2023/07/27 06:19:37;;;;;;;10.38;6.63;;;;;;;;;;5024729;28;20474;-75
2023/07/27 06:22:03;;;;;;;8.70;6.32;;;;;;;;;;5023610;28;20045;-73
2023/07/27 06:24:30;;;;;;;10.55;6.50;;;;;;;;;;5026267;28;20055;-74
2023/07/27 06:26:56;;;;;;;9.82;6.65;;;;;;;;;;5032206;28;20096;-73
2023/07/27 06:29:22;;;;;;;10.20;6.10;;;;;;;;;;5022734;28;20110;-73
2023/07/27 06:31:48;;;;;;;12.60;6.13;;;;;;;;;;5026041;28;20120;-73
2023/07/27 06:34:14;;;;;;;9.00;6.28;;;;;;;;;;5019781;28;20577;-74
2023/07/27 06:36:40;;;;;;;8.57;5.75;;;;;;;;;;5024290;28;20033;-73
2023/07/27 06:39:07;;;;;;;7.88;6.18;;;;;;;;;;5020270;28;20382;-74
2023/07/27 06:41:33;;;;;;;9.18;5.88;;;;;;;;;;5021421;28;20042;-73
2023/07/27 06:43:59;;;;;;;11.40;5.65;;;;;;;;;;5027668;28;20041;-73
2023/07/27 06:46:26;;;;;;;9.75;5.57;;;;;;;;;;5021667;28;20026;-74
2023/07/27 06:48:52;;;;;;;9.30;5.70;;;;;;;;;;5010656;28;20021;-74
2023/07/27 06:51:18;;;;;;;9.38;6.03;;;;;;;;;;5021670;28;20042;-75
2023/07/27 06:53:44;;;;;;;11.55;5.88;;;;;;;;;;5023075;28;20037;-75
2023/07/27 06:56:11;;;;;;;7.45;5.00;;;;;;;;;;5026595;28;20044;-74
2023/07/27 06:58:37;;;;;;;8.18;5.97;;;;;;;;;;5023048;28;20040;-74
2023/07/27 07:01:03;;;;;;;7.85;5.63;;;;;;;;;;5021366;28;20470;-73
2023/07/27 07:03:29;;;;;;;7.32;4.90;;;;;;;;;;5020123;28;20053;-74
2023/07/27 07:05:55;;;;;;;8.05;5.20;;;;;;;;;;5029000;28;20048;-75
2023/07/27 07:08:21;;;;;;;10.77;5.60;;;;;;;;;;5012961;28;20034;-75
2023/07/27 07:10:47;;;;;;;8.43;5.50;;;;;;;;;;5008947;28;20030;-74
2023/07/27 07:13:14;;;;;;;8.90;5.47;;;;;;;;;;5022612;28;20057;-73
2023/07/27 07:15:40;;;;;;;6.72;5.63;;;;;;;;;;5002792;28;20080;-74
2023/07/27 07:18:06;;;;;;;9.07;5.53;;;;;;;;;;5003385;28;20049;-74
2023/07/27 07:20:32;;;;;;;6.78;5.10;;;;;;;;;;5021158;28;20025;-73
2023/07/27 07:23:00;;;;;;;5.97;5.18;;;;;;;;;;5017892;28;20049;-73
2023/07/27 07:25:26;;;;;;;6.80;5.20;;;;;;;;;;5001489;28;20350;-73
2023/07/27 07:27:52;;;;;;;9.68;5.22;;;;;;;;;;5013050;28;20611;-74
2023/07/27 07:30:18;;;;;;;8.35;4.93;;;;;;;;;;5016137;28;20040;-73
2023/07/27 07:32:44;;;;;;;6.40;4.90;;;;;;;;;;5020356;28;20041;-74
2023/07/27 07:35:10;;;;;;;6.82;4.78;;;;;;;;;;5019379;28;20335;-75
2023/07/27 07:37:36;;;;;;;7.60;4.55;;;;;;;;;;5020532;28;20048;-73
2023/07/27 07:40:02;;;;;;;4.88;3.83;;;;;;;;;;5008691;28;20470;-73
2023/07/27 07:42:28;;;;;;;6.43;3.75;;;;;;;;;;5018360;28;20116;-72
2023/07/27 07:44:54;;;;;;;4.47;3.80;;;;;;;;;;5027298;28;20048;-73
2023/07/27 07:47:20;;;;;;;4.90;4.00;;;;;;;;;;5004037;28;20142;-73
2023/07/27 07:49:46;;;;;;;4.05;3.60;;;;;;;;;;5028380;28;20041;-73
2023/07/27 07:52:13;;;;;;;4.45;3.47;;;;;;;;;;5030219;28;20486;-71
2023/07/27 07:54:39;;;;;;;6.07;3.67;;;;;;;;;;5030921;28;20062;-72
2023/07/27 07:57:05;;;;;;;5.68;4.10;;;;;;;;;;5021385;28;20061;-72
2023/07/27 07:59:31;;;;;;;4.78;3.83;;;;;;;;;;5020448;28;20050;-72
2023/07/27 08:01:57;;;;;;;4.07;3.67;;;;;;;;;;5005162;28;20034;-72
2023/07/27 08:04:23;;;;;;;4.35;3.90;;;;;;;;;;5013570;28;20084;-73
2023/07/27 08:06:49;;;;;;;5.70;3.58;;;;;;;;;;5012867;28;20077;-75
2023/07/27 08:09:16;;;;;;;4.30;3.45;;;;;;;;;;5019046;28;20061;-72
2023/07/27 08:11:42;;;;;;;3.38;3.08;;;;;;;;;;5009595;28;20052;-74
2023/07/27 08:14:08;;;;;;;3.65;3.17;;;;;;;;;;5027048;28;20037;-73
2023/07/27 08:16:34;;;;;;;4.47;3.35;;;;;;;;;;5027260;28;20072;-73
2023/07/27 08:19:00;;;;;;;3.58;3.13;;;;;;;;;;5025770;28;20510;-73
2023/07/27 08:21:28;;;;;;;4.00;3.10;;;;;;;;;;5027415;28;20041;-73
2023/07/27 08:23:54;;;;;;;6.00;3.17;;;;;;;;;;5030147;28;20026;-72
2023/07/27 08:26:20;;;;;;;4.63;2.83;;;;;;;;;;5012615;28;20043;-73
2023/07/27 08:28:47;;;;;;;3.42;2.60;;;;;;;;;;5029068;28;20030;-73
2023/07/27 08:31:14;;;;;;;2.78;2.40;;;;;;;;;;5000918;28;20033;-73
2023/07/27 08:33:40;;;;;;;2.78;2.58;;;;;;;;;;5027894;28;20075;-73
2023/07/27 08:36:06;;;;;;;2.50;2.30;;;;;;;;;;5028473;28;20764;-72
2023/07/27 08:38:32;;;;;;;3.42;2.33;;;;;;;;;;5028349;28;20106;-72
2023/07/27 08:40:59;;;;;;;3.35;2.55;;;;;;;;;;5030593;28;20356;-72
2023/07/27 08:43:26;;;;;;;3.20;3.00;;;;;;;;;;5028735;28;20037;-72
2023/07/27 08:45:53;;;;;;;2.53;2.33;;;;;;;;;;5030559;28;20025;-72
2023/07/27 08:48:19;;;;;;;3.25;2.67;;;;;;;;;;5029355;28;20494;-72
2023/07/27 08:50:46;;;;;;;2.85;2.65;;;;;;;;;;5008848;28;20056;-72
2023/07/27 08:53:12;;;;;;;3.00;2.70;;;;;;;;;;5019001;28;20041;-73
2023/07/27 08:55:39;;;;;;;3.15;2.80;;;;;;;;;;5011676;28;20033;-73
2023/07/27 08:58:05;;;;;;;2.88;2.63;;;;;;;;;;5017874;28;20034;-73
2023/07/27 09:00:32;;;;;;;3.15;2.80;;;;;;;;;;5027162;28;20049;-73
2023/07/27 09:02:59;;;;;;;3.60;2.72;;;;;;;;;;5029736;28;20083;-73
2023/07/27 09:05:38;;;;;;;2.92;2.30;;;;;;;;;;5007785;28;20128;-73
2023/07/27 09:08:08;;;;;;;2.65;2.40;;;;;;;;;;5027592;28;20056;-73
2023/07/27 09:10:35;;;;;;;2.80;2.47;;;;;;;;;;5013959;28;20026;-72
2023/07/27 09:13:02;;;;;;;3.10;2.65;;;;;;;;;;5019449;28;20040;-72
2023/07/27 09:15:28;;;;;;;2.45;2.08;;;;;;;;;;5032151;28;20164;-72
2023/07/27 09:17:58;;;;;;;2.60;2.40;;;;;;;;;;5026651;28;20033;-73
2023/07/27 09:20:24;;;;;;;2.58;2.38;;;;;;;;;;5030894;28;20033;-73
2023/07/27 09:22:50;;;;;;;2.58;2.38;;;;;;;;;;5030568;28;20187;-73
2023/07/27 09:25:21;;;;;;;1.83;1.58;;;;;;;;;;5032318;28;20033;-73
2023/07/27 09:27:47;;;;;;;2.67;2.47;;;;;;;;;;5014419;28;20072;-73
2023/07/27 09:30:16;;;;;;;2.42;1.92;;;;;;;;;;5015142;28;20037;-73
2023/07/27 09:32:42;;;;;;;2.58;2.30;;;;;;;;;;5032016;28;20079;-73
2023/07/27 09:35:13;;;;;;;5.35;2.38;;;;;;;;;;5011423;28;20030;-73
2023/07/27 09:37:41;;;;;;;2.25;2.05;;;;;;;;;;5016769;28;20029;-73
2023/07/27 09:40:15;;;;;;;1.92;1.80;;;;;;;;;;5032878;28;20105;-73
2023/07/27 09:42:42;;;;;;;3.65;2.20;;;;;;;;;;5013044;28;20029;-72
2023/07/27 09:45:08;;;;;;;2.83;2.63;;;;;;;;;;5032707;28;20030;-72
2023/07/27 09:47:35;;;;;;;1.95;1.85;;;;;;;;;;5031973;28;20099;-72
2023/07/27 09:50:01;;;;;;;2.92;2.70;;;;;;;;;;5014211;28;20033;-73
2023/07/27 09:52:28;;;;;;;2.85;2.38;;;;;;;;;;5025503;28;20100;-73
2023/07/27 09:54:58;;;;;;;3.00;2.45;;;;;;;;;;5032981;28;20025;-73
2023/07/27 09:57:25;;;;;;;3.13;2.67;;;;;;;;;;5032295;28;20033;-72
2023/07/27 09:59:52;;;;;;;4.93;2.20;;;;;;;;;;5028036;28;20091;-73
2023/07/27 10:02:18;;;;;;;4.28;2.30;;;;;;;;;;5028527;28;20611;-73
2023/07/27 10:04:54;;;;;;;2.50;2.30;;;;;;;;;;5012622;28;20363;-74
2023/07/27 10:07:21;;;;;;;2.15;2.05;;;;;;;;;;5012069;28;20450;-74
2023/07/27 10:09:47;;;;;;;3.15;2.47;;;;;;;;;;5033242;28;20043;-74
2023/07/27 10:12:29;;;;;;;3.60;2.45;;;;;;;;;;5027584;28;20371;-74
2023/07/27 10:15:14;;;;;;;4.18;2.10;;;;;;;;;;5018613;28;20486;-73
2023/07/27 10:17:49;;;;;;;3.65;3.35;;;;;;;;;;5026541;28;20029;-73
2023/07/27 10:20:24;;;;;;;2.92;2.67;;;;;;;;;;5011731;28;20590;-73
2023/07/27 10:22:52;;;;;;;4.20;2.83;;;;;;;;;;5010775;28;20033;-75
2023/07/27 10:25:18;;;;;;;4.53;2.92;;;;;;;;;;5021252;28;20552;-74
2023/07/27 10:27:57;;;;;;;3.22;2.95;;;;;;;;;;5017750;28;20052;-76
2023/07/27 10:30:24;;;;;;;2.60;2.40;;;;;;;;;;5026931;28;20032;-75
2023/07/27 10:33:15;;;;;;;2.40;2.20;;;;;;;;;;5018935;28;20041;-74
2023/07/27 10:36:00;;;;;;;3.30;3.00;;;;;;;;;;5020629;28;20034;-74
2023/07/27 10:38:26;;;;;;;2.40;2.20;;;;;;;;;;5019062;28;20097;-74
2023/07/27 10:40:53;;;;;;;3.28;2.70;;;;;;;;;;5020033;28;20065;-73
2023/07/27 10:43:19;;;;;;;3.28;2.60;;;;;;;;;;5017694;28;20091;-74
2023/07/27 10:45:52;;;;;;;2.83;2.60;;;;;;;;;;5015034;28;20029;-74
2023/07/27 10:48:18;;;;;;;2.65;2.45;;;;;;;;;;5020943;28;20067;-76
2023/07/27 10:50:45;;;;;;;4.05;3.30;;;;;;;;;;5020476;28;20041;-75
2023/07/27 10:53:11;;;;;;;2.92;2.72;;;;;;;;;;5023436;28;20039;-75
2023/07/27 10:55:38;;;;;;;3.47;2.85;;;;;;;;;;4986641;28;20029;-76
2023/07/27 10:58:05;;;;;;;3.47;3.17;;;;;;;;;;5002647;28;20053;-77
2023/07/27 11:00:38;;;;;;;3.42;3.13;;;;;;;;;;5020744;28;20033;-75
2023/07/27 11:03:04;;;;;;;3.40;3.17;;;;;;;;;;4998758;28;20041;-77
2023/07/27 11:05:30;;;;;;;3.90;3.50;;;;;;;;;;5020437;28;20324;-72
2023/07/27 11:08:02;;;;;;;3.47;3.17;;;;;;;;;;5009339;28;20478;-72
2023/07/27 11:10:30;;;;;;;2.90;2.65;;;;;;;;;;5025739;28;20287;-73
2023/07/27 11:12:57;;;;;;;3.53;3.22;;;;;;;;;;5019084;28;20537;-73
2023/07/27 11:15:24;;;;;;;3.70;3.40;;;;;;;;;;4996642;28;20382;-73
2023/07/27 11:17:50;;;;;;;21.08;14.90;;;;;;;;;;5012990;28;20037;-73
2023/07/27 11:20:17;;;;;;;3.22;3.03;;;;;;;;;;5026524;28;20083;-73
2023/07/27 11:22:44;;;;;;;3.70;3.40;;;;;;;;;;5030824;28;20034;-73
2023/07/27 11:25:10;;;;;;;3.78;3.47;;;;;;;;;;5021468;28;20041;-74
2023/07/27 11:27:39;;;;;;;3.92;3.53;;;;;;;;;;5014026;28;20510;-74
2023/07/27 11:30:16;;;;;;;4.63;3.72;;;;;;;;;;5028905;28;20108;-74
2023/07/27 11:32:42;;;;;;;3.60;3.30;;;;;;;;;;5018052;28;20026;-74
2023/07/27 11:35:08;;;;;;;3.80;3.50;;;;;;;;;;5024218;28;20536;-74
2023/07/27 11:37:35;;;;;;;6.75;4.05;;;;;;;;;;5031018;28;20084;-74
2023/07/27 11:40:01;;;;;;;4.93;3.97;;;;;;;;;;5029732;28;20039;-74
2023/07/27 11:42:27;;;;;;;4.25;3.95;;;;;;;;;;5028689;28;20104;-73
2023/07/27 11:44:53;;;;;;;4.65;4.25;;;;;;;;;;5025639;28;20029;-73
2023/07/27 11:47:19;;;;;;;4.75;4.40;;;;;;;;;;5030857;28;20032;-74
2023/07/27 11:49:45;;;;;;;4.85;4.50;;;;;;;;;;5014933;28;20100;-74
2023/07/27 11:52:24;;;;;;;4.75;4.40;;;;;;;;;;5030648;28;20080;-74
2023/07/27 11:54:56;;;;;;;4.45;3.65;;;;;;;;;;5028901;28;20037;-74
2023/07/27 11:57:27;;;;;;;4.32;3.92;;;;;;;;;;5013074;28;20418;-74
2023/07/27 12:00:13;;;;;;;1.88;1.77;;;;;;;;;;5028582;28;20025;-74
2023/07/27 12:02:56;;;;;;;1.92;1.83;;;;;;;;;;5033262;28;20044;-75
2023/07/27 12:05:23;;;;;;;2.85;2.00;;;;;;;;;;5007336;28;20069;-75
2023/07/27 12:07:52;;;;;;;3.00;2.20;;;;;;;;;;5030517;28;20442;-74
2023/07/27 12:10:20;;;;;;;2.20;1.35;;;;;;;;;;5030811;28;20033;-74
2023/07/27 12:13:11;;;;;;;2.35;1.40;;;;;;;;;;5007374;28;20098;-74
2023/07/27 12:15:38;;;;;;;2.35;1.20;;;;;;;;;;5015446;28;20505;-74
2023/07/27 12:18:05;;;;;;;2.20;0.80;;;;;;;;;;5019735;28;20050;-74
2023/07/27 12:20:32;;;;;;;0.90;0.80;;;;;;;;;;4998151;28;20382;-74
2023/07/27 12:22:58;;;;;;;4.88;0.57;;;;;;;;;;5008618;28;20034;-74
2023/07/27 12:25:28;;;;;;;4.63;0.95;;;;;;;;;;5030705;28;20489;-73
2023/07/27 12:27:54;;;;;;;2.28;0.90;;;;;;;;;;5030741;28;20650;-73
2023/07/27 12:30:20;;;;;;;1.52;0.60;;;;;;;;;;5028994;28;20022;-74
2023/07/27 12:32:47;;;;;;;0.80;0.80;;;;;;;;;;5027842;28;20033;-74
2023/07/27 12:35:13;;;;;;;1.13;0.95;;;;;;;;;;5028068;28;20040;-74
2023/07/27 12:37:39;;;;;;;2.47;0.80;;;;;;;;;;5030409;28;20033;-74
2023/07/27 12:40:06;;;;;;;3.67;1.10;;;;;;;;;;5013882;28;20123;-74
2023/07/27 12:42:32;;;;;;;2.08;1.00;;;;;;;;;;5008751;28;20048;-74
2023/07/27 12:44:58;;;;;;;1.23;0.90;;;;;;;;;;5033048;28;20083;-74
2023/07/27 12:47:24;;;;;;;0.70;0.70;;;;;;;;;;5034284;28;20038;-74
2023/07/27 12:49:50;;;;;;;1.00;0.90;;;;;;;;;;5027897;28;20275;-74
2023/07/27 12:52:16;;;;;;;0.70;0.70;;;;;;;;;;5033335;28;20038;-74
2023/07/27 12:54:42;;;;;;;0.63;0.63;;;;;;;;;;5023581;28;20033;-74
2023/07/27 12:57:08;;;;;;;1.45;0.88;;;;;;;;;;5032565;28;20116;-74
2023/07/27 12:59:35;;;;;;;2.70;0.93;;;;;;;;;;5023539;28;20116;-74
2023/07/27 13:02:01;;;;;;;2.15;0.90;;;;;;;;;;5036430;28;20499;-74
2023/07/27 13:04:27;;;;;;;2.95;0.70;;;;;;;;;;5027129;28;20061;-74
2023/07/27 13:06:53;;;;;;;1.40;0.50;;;;;;;;;;5029228;28;20034;-75
2023/07/27 13:09:19;;;;;;;1.85;0.40;;;;;;;;;;5015935;28;20033;-74
2023/07/27 13:11:46;;;;;;;0.90;0.35;;;;;;;;;;5014925;28;20072;-72
2023/07/27 13:14:12;;;;;;;0.90;0.20;;;;;;;;;;5023111;28;20045;-74
2023/07/27 13:16:38;;;;;;;2.60;0.32;;;;;;;;;;5017549;28;20099;-73
2023/07/27 13:19:04;;;;;;;0.22;0.22;;;;;;;;;;5017746;28;20034;-73
2023/07/27 13:21:30;;;;;;;0.38;0.30;;;;;;;;;;5020059;28;20084;-72
2023/07/27 13:23:58;;;;;;;2.30;0.30;;;;;;;;;;5023550;28;20032;-72
2023/07/27 13:26:24;;;;;;;0.20;0.20;;;;;;;;;;5006383;28;20394;-72
2023/07/27 13:28:50;;;;;;;1.05;0.65;;;;;;;;;;5015536;28;20050;-71
2023/07/27 13:31:19;;;;;;;0.38;0.20;;;;;;;;;;5025901;28;20037;-72
2023/07/27 13:33:46;;;;;;;1.17;0.68;;;;;;;;;;5030101;28;20080;-71
2023/07/27 13:36:12;;;;;;;0.47;0.40;;;;;;;;;;5013128;28;20483;-71
2023/07/27 13:38:38;;;;;;;0.30;0.30;;;;;;;;;;5001379;28;20025;-72
2023/07/27 13:41:04;;;;;;;0.45;0.40;;;;;;;;;;5019519;28;20112;-72
2023/07/27 13:43:32;;;;;;;0.20;0.20;;;;;;;;;;5021539;28;20030;-70
2023/07/27 13:45:58;;;;;;;0.20;0.20;;;;;;;;;;5028473;28;20025;-74
2023/07/27 13:48:25;;;;;;;0.63;0.30;;;;;;;;;;5022568;28;20075;-74
2023/07/27 13:50:51;;;;;;;0.43;0.30;;;;;;;;;;4999638;28;20505;-73
2023/07/27 13:53:18;;;;;;;0.20;0.10;;;;;;;;;;5019895;28;20029;-75
2023/07/27 13:55:48;;;;;;;0.60;0.60;;;;;;;;;;5024353;28;20387;-73
2023/07/27 13:58:14;;;;;;;1.05;0.65;;;;;;;;;;5026343;28;20033;-73
2023/07/27 14:00:40;;;;;;;1.25;1.15;;;;;;;;;;5027471;28;20022;-73
2023/07/27 14:03:06;;;;;;;0.50;0.40;;;;;;;;;;5020857;28;20041;-73
2023/07/27 14:05:32;;;;;;;0.32;0.32;;;;;;;;;;5025806;28;20443;-74
2023/07/27 14:07:58;;;;;;;2.35;0.55;;;;;;;;;;5031755;28;20026;-75
2023/07/27 14:10:24;;;;;;;1.00;0.70;;;;;;;;;;5030274;28;20077;-74
2023/07/27 14:12:50;;;;;;;1.00;0.80;;;;;;;;;;5031557;28;20025;-74
2023/07/27 14:15:16;;;;;;;0.52;0.32;;;;;;;;;;5029780;28;20114;-74
2023/07/27 14:17:42;;;;;;;0.43;0.30;;;;;;;;;;5012757;28;20032;-74
2023/07/27 14:20:08;;;;;;;0.30;0.30;;;;;;;;;;5020715;28;20044;-74
2023/07/27 14:22:35;;;;;;;0.43;0.43;;;;;;;;;;5030357;28;20094;-73
2023/07/27 14:25:04;;;;;;;0.40;0.40;;;;;;;;;;5012506;28;20048;-73
2023/07/27 14:27:32;;;;;;;0.50;0.50;;;;;;;;;;4998305;28;20549;-74
2023/07/27 14:29:58;;;;;;;0.82;0.38;;;;;;;;;;5030509;28;20021;-74
2023/07/27 14:32:24;;;;;;;0.40;0.40;;;;;;;;;;5014425;28;20045;-74
2023/07/27 14:34:50;;;;;;;0.43;0.40;;;;;;;;;;5027890;28;20425;-74
2023/07/27 14:37:16;;;;;;;1.95;0.50;;;;;;;;;;5013014;28;20136;-74
2023/07/27 14:39:42;;;;;;;0.40;0.32;;;;;;;;;;5024954;28;20036;-74
2023/07/27 14:42:08;;;;;;;0.57;0.57;;;;;;;;;;5030474;28;20042;-74
2023/07/27 14:44:34;;;;;;;0.40;0.40;;;;;;;;;;5013901;28;20487;-74
2023/07/27 14:47:00;;;;;;;0.30;0.30;;;;;;;;;;5027633;28;20026;-74